sensor_id;sensor_type;location;lat;lon;timestamp;temperature;humidity
5176;DHT22;2607;50.934;6.934;2023-08-24T00:00:07;22.60;99.90
5176;DHT22;2607;50.934;6.934;2023-08-24T00:02:33;22.60;99.90
5176;DHT22;2607;50.934;6.934;2023-08-24T00:04:58;22.60;99.90
5176;DHT22;2607;50.934;6.934;2023-08-24T00:07:24;22.50;99.90
5176;DHT22;2607;50.934;6.934;2023-08-24T00:09:52;22.50;99.90
5176;DHT22;2607;50.934;6.934;2023-08-24T00:12:18;22.50;99.90
5176;DHT22;2607;50.934;6.934;2023-08-24T00:14:44;22.40;99.90
5176;DHT22;2607;50.934;6.934;2023-08-24T00:17:09;22.40;99.90
5176;DHT22;2607;50.934;6.934;2023-08-24T00:19:35;22.40;99.90
5176;DHT22;2607;50.934;6.934;2023-08-24T00:22:01;22.30;99.90
5176;DHT22;2607;50.934;6.934;2023-08-24T00:24:26;22.30;99.90
5176;DHT22;2607;50.934;6.934;2023-08-24T00:26:52;22.30;99.90
5176;DHT22;2607;50.934;6.934;2023-08-24T00:29:17;22.20;99.90
5176;DHT22;2607;50.934;6.934;2023-08-24T00:31:43;22.20;99.90
5176;DHT22;2607;50.934;6.934;2023-08-24T00:34:08;22.20;99.90
5176;DHT22;2607;50.934;6.934;2023-08-24T00:36:34;22.20;99.90
5176;DHT22;2607;50.934;6.934;2023-08-24T00:39:00;22.10;99.90
5176;DHT22;2607;50.934;6.934;2023-08-24T00:41:26;22.10;99.90
5176;DHT22;2607;50.934;6.934;2023-08-24T00:43:51;22.00;99.90
5176;DHT22;2607;50.934;6.934;2023-08-24T00:46:17;22.00;99.90
5176;DHT22;2607;50.934;6.934;2023-08-24T00:48:43;22.00;99.90
5176;DHT22;2607;50.934;6.934;2023-08-24T00:51:09;21.90;99.90
5176;DHT22;2607;50.934;6.934;2023-08-24T00:53:35;21.90;99.90
5176;DHT22;2607;50.934;6.934;2023-08-24T00:56:03;21.90;99.90
5176;DHT22;2607;50.934;6.934;2023-08-24T00:58:29;21.90;99.90
5176;DHT22;2607;50.934;6.934;2023-08-24T01:00:56;21.80;99.90
5176;DHT22;2607;50.934;6.934;2023-08-24T01:03:23;21.80;99.90
5176;DHT22;2607;50.934;6.934;2023-08-24T01:05:49;21.70;99.90
5176;DHT22;2607;50.934;6.934;2023-08-24T01:08:15;21.70;99.90
5176;DHT22;2607;50.934;6.934;2023-08-24T01:10:52;21.70;99.90
5176;DHT22;2607;50.934;6.934;2023-08-24T01:13:31;21.70;99.90
5176;DHT22;2607;50.934;6.934;2023-08-24T01:16:17;21.60;99.90
5176;DHT22;2607;50.934;6.934;2023-08-24T01:18:43;21.60;99.90
5176;DHT22;2607;50.934;6.934;2023-08-24T01:21:10;21.60;99.90
5176;DHT22;2607;50.934;6.934;2023-08-24T01:24:01;21.60;99.90
5176;DHT22;2607;50.934;6.934;2023-08-24T01:26:29;21.60;99.90
5176;DHT22;2607;50.934;6.934;2023-08-24T01:28:55;21.50;99.90
5176;DHT22;2607;50.934;6.934;2023-08-24T01:31:21;21.50;99.90
5176;DHT22;2607;50.934;6.934;2023-08-24T01:33:47;21.50;99.90
5176;DHT22;2607;50.934;6.934;2023-08-24T01:36:14;21.50;99.90
5176;DHT22;2607;50.934;6.934;2023-08-24T01:38:42;21.50;99.90
5176;DHT22;2607;50.934;6.934;2023-08-24T01:41:26;21.40;99.90
5176;DHT22;2607;50.934;6.934;2023-08-24T01:43:54;21.40;99.90
5176;DHT22;2607;50.934;6.934;2023-08-24T01:46:22;21.40;99.90
5176;DHT22;2607;50.934;6.934;2023-08-24T01:48:48;21.40;99.90
5176;DHT22;2607;50.934;6.934;2023-08-24T01:51:14;21.40;99.90
5176;DHT22;2607;50.934;6.934;2023-08-24T01:53:40;21.30;99.90
5176;DHT22;2607;50.934;6.934;2023-08-24T01:56:11;21.30;99.90
5176;DHT22;2607;50.934;6.934;2023-08-24T01:58:36;21.30;99.90
5176;DHT22;2607;50.934;6.934;2023-08-24T02:01:02;21.30;99.90
5176;DHT22;2607;50.934;6.934;2023-08-24T02:03:28;21.30;99.90
5176;DHT22;2607;50.934;6.934;2023-08-24T02:05:53;21.30;99.90
5176;DHT22;2607;50.934;6.934;2023-08-24T02:08:19;21.30;99.90
5176;DHT22;2607;50.934;6.934;2023-08-24T02:10:44;21.30;99.90
5176;DHT22;2607;50.934;6.934;2023-08-24T02:13:10;21.20;99.90
5176;DHT22;2607;50.934;6.934;2023-08-24T02:15:37;21.20;99.90
5176;DHT22;2607;50.934;6.934;2023-08-24T02:18:05;21.20;99.90
5176;DHT22;2607;50.934;6.934;2023-08-24T02:20:30;21.20;99.90
5176;DHT22;2607;50.934;6.934;2023-08-24T02:22:59;21.20;99.90
5176;DHT22;2607;50.934;6.934;2023-08-24T02:25:25;21.20;99.90
5176;DHT22;2607;50.934;6.934;2023-08-24T02:27:50;21.20;99.90
5176;DHT22;2607;50.934;6.934;2023-08-24T02:30:16;21.20;99.90
5176;DHT22;2607;50.934;6.934;2023-08-24T02:32:42;21.10;99.90
5176;DHT22;2607;50.934;6.934;2023-08-24T02:35:08;21.10;99.90
5176;DHT22;2607;50.934;6.934;2023-08-24T02:37:33;21.10;99.90
5176;DHT22;2607;50.934;6.934;2023-08-24T02:39:59;21.10;99.90
5176;DHT22;2607;50.934;6.934;2023-08-24T02:42:25;21.10;99.90
5176;DHT22;2607;50.934;6.934;2023-08-24T02:44:50;21.10;99.90
5176;DHT22;2607;50.934;6.934;2023-08-24T02:47:16;21.10;99.90
5176;DHT22;2607;50.934;6.934;2023-08-24T02:49:42;21.00;99.90
5176;DHT22;2607;50.934;6.934;2023-08-24T02:52:07;21.00;99.90
5176;DHT22;2607;50.934;6.934;2023-08-24T02:54:34;21.00;99.90
5176;DHT22;2607;50.934;6.934;2023-08-24T02:56:59;21.00;99.90
5176;DHT22;2607;50.934;6.934;2023-08-24T02:59:25;21.00;99.90
5176;DHT22;2607;50.934;6.934;2023-08-24T03:01:51;21.00;99.90
5176;DHT22;2607;50.934;6.934;2023-08-24T03:04:18;21.00;99.90
5176;DHT22;2607;50.934;6.934;2023-08-24T03:06:44;21.00;99.90
5176;DHT22;2607;50.934;6.934;2023-08-24T03:09:10;21.10;99.90
5176;DHT22;2607;50.934;6.934;2023-08-24T03:11:35;21.10;99.90
5176;DHT22;2607;50.934;6.934;2023-08-24T03:14:01;21.10;99.90
5176;DHT22;2607;50.934;6.934;2023-08-24T03:16:26;21.10;99.90
5176;DHT22;2607;50.934;6.934;2023-08-24T03:18:52;21.10;99.90
5176;DHT22;2607;50.934;6.934;2023-08-24T03:21:18;21.10;99.90
5176;DHT22;2607;50.934;6.934;2023-08-24T03:23:43;21.10;99.90
5176;DHT22;2607;50.934;6.934;2023-08-24T03:26:09;21.00;99.90
5176;DHT22;2607;50.934;6.934;2023-08-24T03:28:34;21.00;99.90
5176;DHT22;2607;50.934;6.934;2023-08-24T03:31:00;21.00;99.90
5176;DHT22;2607;50.934;6.934;2023-08-24T03:33:26;21.00;99.90
5176;DHT22;2607;50.934;6.934;2023-08-24T03:35:53;21.00;99.90
5176;DHT22;2607;50.934;6.934;2023-08-24T03:38:19;21.00;99.90
5176;DHT22;2607;50.934;6.934;2023-08-24T03:40:44;21.00;99.90
5176;DHT22;2607;50.934;6.934;2023-08-24T03:43:10;21.00;99.90
5176;DHT22;2607;50.934;6.934;2023-08-24T03:45:36;21.00;99.90
5176;DHT22;2607;50.934;6.934;2023-08-24T03:48:02;21.00;99.90
5176;DHT22;2607;50.934;6.934;2023-08-24T03:50:27;21.00;99.90
5176;DHT22;2607;50.934;6.934;2023-08-24T03:52:54;20.90;99.90
5176;DHT22;2607;50.934;6.934;2023-08-24T03:55:20;21.00;99.90
5176;DHT22;2607;50.934;6.934;2023-08-24T03:57:46;21.00;99.90
5176;DHT22;2607;50.934;6.934;2023-08-24T04:00:12;21.00;99.90
5176;DHT22;2607;50.934;6.934;2023-08-24T04:02:42;21.00;99.90
5176;DHT22;2607;50.934;6.934;2023-08-24T04:05:08;21.00;99.90
5176;DHT22;2607;50.934;6.934;2023-08-24T04:07:34;21.00;99.90
5176;DHT22;2607;50.934;6.934;2023-08-24T04:10:02;21.00;99.90
5176;DHT22;2607;50.934;6.934;2023-08-24T04:12:30;21.00;99.90
5176;DHT22;2607;50.934;6.934;2023-08-24T04:14:56;21.00;99.90
5176;DHT22;2607;50.934;6.934;2023-08-24T04:17:23;21.00;99.90
5176;DHT22;2607;50.934;6.934;2023-08-24T04:19:48;21.00;99.90
5176;DHT22;2607;50.934;6.934;2023-08-24T04:22:14;21.00;99.90
5176;DHT22;2607;50.934;6.934;2023-08-24T04:24:39;21.00;99.90
5176;DHT22;2607;50.934;6.934;2023-08-24T04:27:05;21.00;99.90
5176;DHT22;2607;50.934;6.934;2023-08-24T04:29:31;21.00;99.90
5176;DHT22;2607;50.934;6.934;2023-08-24T04:31:57;21.00;99.90
5176;DHT22;2607;50.934;6.934;2023-08-24T04:34:23;21.00;99.90
5176;DHT22;2607;50.934;6.934;2023-08-24T04:36:48;21.00;99.90
5176;DHT22;2607;50.934;6.934;2023-08-24T04:39:14;21.00;99.90
5176;DHT22;2607;50.934;6.934;2023-08-24T04:41:39;21.00;99.90
5176;DHT22;2607;50.934;6.934;2023-08-24T04:44:05;21.00;99.90
5176;DHT22;2607;50.934;6.934;2023-08-24T04:46:33;20.90;99.90
5176;DHT22;2607;50.934;6.934;2023-08-24T04:48:58;20.90;99.90
5176;DHT22;2607;50.934;6.934;2023-08-24T04:51:24;20.90;99.90
5176;DHT22;2607;50.934;6.934;2023-08-24T04:53:50;20.80;99.90
5176;DHT22;2607;50.934;6.934;2023-08-24T04:56:15;20.80;99.90
5176;DHT22;2607;50.934;6.934;2023-08-24T04:58:53;20.70;99.90
5176;DHT22;2607;50.934;6.934;2023-08-24T05:01:19;20.70;99.90
5176;DHT22;2607;50.934;6.934;2023-08-24T05:03:44;20.60;99.90
5176;DHT22;2607;50.934;6.934;2023-08-24T05:06:10;20.60;99.90
5176;DHT22;2607;50.934;6.934;2023-08-24T05:08:36;20.50;99.90
5176;DHT22;2607;50.934;6.934;2023-08-24T05:11:01;20.50;99.90
5176;DHT22;2607;50.934;6.934;2023-08-24T05:13:27;20.50;99.90
5176;DHT22;2607;50.934;6.934;2023-08-24T05:15:52;20.40;99.90
5176;DHT22;2607;50.934;6.934;2023-08-24T05:18:18;20.40;99.90
5176;DHT22;2607;50.934;6.934;2023-08-24T05:20:43;20.30;99.90
5176;DHT22;2607;50.934;6.934;2023-08-24T05:23:09;20.30;99.90
5176;DHT22;2607;50.934;6.934;2023-08-24T05:25:34;20.30;99.90
5176;DHT22;2607;50.934;6.934;2023-08-24T05:28:00;20.20;99.90
5176;DHT22;2607;50.934;6.934;2023-08-24T05:30:25;20.20;99.90
5176;DHT22;2607;50.934;6.934;2023-08-24T05:32:54;20.20;99.90
5176;DHT22;2607;50.934;6.934;2023-08-24T05:35:20;20.10;99.90
5176;DHT22;2607;50.934;6.934;2023-08-24T05:37:47;20.10;99.90
5176;DHT22;2607;50.934;6.934;2023-08-24T05:40:13;20.00;99.90
5176;DHT22;2607;50.934;6.934;2023-08-24T05:42:38;20.00;99.90
5176;DHT22;2607;50.934;6.934;2023-08-24T05:45:04;20.00;99.90
5176;DHT22;2607;50.934;6.934;2023-08-24T05:47:30;20.00;99.90
5176;DHT22;2607;50.934;6.934;2023-08-24T05:49:55;20.00;99.90
5176;DHT22;2607;50.934;6.934;2023-08-24T05:52:21;20.00;99.90
5176;DHT22;2607;50.934;6.934;2023-08-24T05:54:47;20.00;99.90
5176;DHT22;2607;50.934;6.934;2023-08-24T05:57:12;20.00;99.90
5176;DHT22;2607;50.934;6.934;2023-08-24T05:59:38;20.00;99.90
5176;DHT22;2607;50.934;6.934;2023-08-24T06:02:03;20.00;99.90
5176;DHT22;2607;50.934;6.934;2023-08-24T06:04:29;20.00;99.90
5176;DHT22;2607;50.934;6.934;2023-08-24T06:06:54;20.00;99.90
5176;DHT22;2607;50.934;6.934;2023-08-24T06:09:20;19.90;99.90
5176;DHT22;2607;50.934;6.934;2023-08-24T06:11:46;20.00;99.90
5176;DHT22;2607;50.934;6.934;2023-08-24T06:14:12;20.00;99.90
5176;DHT22;2607;50.934;6.934;2023-08-24T06:16:37;20.00;99.90
5176;DHT22;2607;50.934;6.934;2023-08-24T06:19:03;20.00;99.90
5176;DHT22;2607;50.934;6.934;2023-08-24T06:21:29;20.00;99.90
5176;DHT22;2607;50.934;6.934;2023-08-24T06:23:54;20.00;99.90
5176;DHT22;2607;50.934;6.934;2023-08-24T06:26:20;20.00;99.90
5176;DHT22;2607;50.934;6.934;2023-08-24T06:28:45;20.00;99.90
5176;DHT22;2607;50.934;6.934;2023-08-24T06:31:11;20.00;99.90
5176;DHT22;2607;50.934;6.934;2023-08-24T06:33:37;20.00;99.90
5176;DHT22;2607;50.934;6.934;2023-08-24T06:36:04;20.00;99.90
5176;DHT22;2607;50.934;6.934;2023-08-24T06:38:37;20.00;99.90
5176;DHT22;2607;50.934;6.934;2023-08-24T06:41:03;20.00;99.90
5176;DHT22;2607;50.934;6.934;2023-08-24T06:43:28;20.10;99.90
5176;DHT22;2607;50.934;6.934;2023-08-24T06:45:55;20.10;99.90
5176;DHT22;2607;50.934;6.934;2023-08-24T06:48:20;20.10;99.90
5176;DHT22;2607;50.934;6.934;2023-08-24T06:50:46;20.10;99.90
5176;DHT22;2607;50.934;6.934;2023-08-24T06:53:12;20.20;99.90
5176;DHT22;2607;50.934;6.934;2023-08-24T06:55:37;20.20;99.90
5176;DHT22;2607;50.934;6.934;2023-08-24T06:58:03;20.20;99.90
5176;DHT22;2607;50.934;6.934;2023-08-24T07:00:31;20.30;99.90
5176;DHT22;2607;50.934;6.934;2023-08-24T07:02:56;20.30;99.90
5176;DHT22;2607;50.934;6.934;2023-08-24T07:05:23;20.30;99.90
5176;DHT22;2607;50.934;6.934;2023-08-24T07:07:51;20.40;99.90
5176;DHT22;2607;50.934;6.934;2023-08-24T07:10:18;20.40;99.90
5176;DHT22;2607;50.934;6.934;2023-08-24T07:12:44;20.40;99.90
5176;DHT22;2607;50.934;6.934;2023-08-24T07:15:11;20.50;99.90
5176;DHT22;2607;50.934;6.934;2023-08-24T07:17:37;20.50;99.90
5176;DHT22;2607;50.934;6.934;2023-08-24T07:20:04;20.50;99.90
5176;DHT22;2607;50.934;6.934;2023-08-24T07:22:37;20.60;99.90
5176;DHT22;2607;50.934;6.934;2023-08-24T07:25:03;20.60;99.90
5176;DHT22;2607;50.934;6.934;2023-08-24T07:27:34;20.70;99.90
5176;DHT22;2607;50.934;6.934;2023-08-24T07:30:00;20.70;99.90
5176;DHT22;2607;50.934;6.934;2023-08-24T07:32:26;20.80;99.90
5176;DHT22;2607;50.934;6.934;2023-08-24T07:34:52;20.80;99.90
5176;DHT22;2607;50.934;6.934;2023-08-24T07:37:18;20.80;99.90
5176;DHT22;2607;50.934;6.934;2023-08-24T07:39:43;20.90;99.90
5176;DHT22;2607;50.934;6.934;2023-08-24T07:42:09;20.90;99.90
5176;DHT22;2607;50.934;6.934;2023-08-24T07:44:34;20.90;99.90
5176;DHT22;2607;50.934;6.934;2023-08-24T07:47:01;21.00;99.90
5176;DHT22;2607;50.934;6.934;2023-08-24T07:49:26;21.00;99.90
5176;DHT22;2607;50.934;6.934;2023-08-24T07:51:52;21.10;99.90
5176;DHT22;2607;50.934;6.934;2023-08-24T07:54:18;21.20;99.90
5176;DHT22;2607;50.934;6.934;2023-08-24T07:56:43;21.30;99.90
5176;DHT22;2607;50.934;6.934;2023-08-24T07:59:09;21.30;99.90
5176;DHT22;2607;50.934;6.934;2023-08-24T08:01:34;21.40;99.90
5176;DHT22;2607;50.934;6.934;2023-08-24T08:04:00;21.50;99.90
5176;DHT22;2607;50.934;6.934;2023-08-24T08:06:26;21.60;99.90
5176;DHT22;2607;50.934;6.934;2023-08-24T08:08:52;21.60;99.90
5176;DHT22;2607;50.934;6.934;2023-08-24T08:11:18;21.70;99.90
5176;DHT22;2607;50.934;6.934;2023-08-24T08:13:44;21.80;99.90
5176;DHT22;2607;50.934;6.934;2023-08-24T08:16:09;21.80;99.90
5176;DHT22;2607;50.934;6.934;2023-08-24T08:18:36;22.00;99.90
5176;DHT22;2607;50.934;6.934;2023-08-24T08:21:15;22.00;99.90
5176;DHT22;2607;50.934;6.934;2023-08-24T08:23:40;22.10;99.90
5176;DHT22;2607;50.934;6.934;2023-08-24T08:26:08;22.20;99.90
5176;DHT22;2607;50.934;6.934;2023-08-24T08:28:35;22.20;99.90
5176;DHT22;2607;50.934;6.934;2023-08-24T08:31:01;22.30;99.90
5176;DHT22;2607;50.934;6.934;2023-08-24T08:33:26;22.30;99.90
5176;DHT22;2607;50.934;6.934;2023-08-24T08:35:52;22.40;99.90
5176;DHT22;2607;50.934;6.934;2023-08-24T08:38:17;22.40;99.90
5176;DHT22;2607;50.934;6.934;2023-08-24T08:40:43;22.50;99.90
5176;DHT22;2607;50.934;6.934;2023-08-24T08:43:12;22.60;99.90
5176;DHT22;2607;50.934;6.934;2023-08-24T08:45:37;22.70;99.90
5176;DHT22;2607;50.934;6.934;2023-08-24T08:48:03;22.80;99.90
5176;DHT22;2607;50.934;6.934;2023-08-24T08:50:32;22.90;99.90
5176;DHT22;2607;50.934;6.934;2023-08-24T08:53:00;23.00;99.90
5176;DHT22;2607;50.934;6.934;2023-08-24T08:55:25;23.10;99.90
5176;DHT22;2607;50.934;6.934;2023-08-24T08:57:53;23.20;99.90
5176;DHT22;2607;50.934;6.934;2023-08-24T09:00:19;23.30;99.90
5176;DHT22;2607;50.934;6.934;2023-08-24T09:02:48;23.40;99.90
5176;DHT22;2607;50.934;6.934;2023-08-24T09:05:14;23.50;99.90
5176;DHT22;2607;50.934;6.934;2023-08-24T09:07:40;23.60;99.90
5176;DHT22;2607;50.934;6.934;2023-08-24T09:10:07;23.70;99.90
5176;DHT22;2607;50.934;6.934;2023-08-24T09:12:34;23.80;99.90
5176;DHT22;2607;50.934;6.934;2023-08-24T09:15:00;23.90;99.90
5176;DHT22;2607;50.934;6.934;2023-08-24T09:17:25;24.10;99.90
5176;DHT22;2607;50.934;6.934;2023-08-24T09:19:58;24.20;99.90
5176;DHT22;2607;50.934;6.934;2023-08-24T09:22:23;24.30;99.90
5176;DHT22;2607;50.934;6.934;2023-08-24T09:24:49;24.50;99.90
5176;DHT22;2607;50.934;6.934;2023-08-24T09:27:21;24.60;99.90
5176;DHT22;2607;50.934;6.934;2023-08-24T09:29:53;24.70;99.90
5176;DHT22;2607;50.934;6.934;2023-08-24T09:32:28;24.80;99.90
5176;DHT22;2607;50.934;6.934;2023-08-24T09:34:54;24.90;99.90
5176;DHT22;2607;50.934;6.934;2023-08-24T09:37:20;25.10;99.90
5176;DHT22;2607;50.934;6.934;2023-08-24T09:39:45;25.20;99.90
5176;DHT22;2607;50.934;6.934;2023-08-24T09:42:12;25.30;99.90
5176;DHT22;2607;50.934;6.934;2023-08-24T09:44:40;25.30;99.90
5176;DHT22;2607;50.934;6.934;2023-08-24T09:47:11;25.50;99.90
5176;DHT22;2607;50.934;6.934;2023-08-24T09:49:37;25.50;99.90
5176;DHT22;2607;50.934;6.934;2023-08-24T09:52:06;25.60;99.90
5176;DHT22;2607;50.934;6.934;2023-08-24T09:54:32;25.70;99.90
5176;DHT22;2607;50.934;6.934;2023-08-24T09:57:02;25.80;99.90
5176;DHT22;2607;50.934;6.934;2023-08-24T09:59:30;25.80;99.90
5176;DHT22;2607;50.934;6.934;2023-08-24T10:01:56;25.90;99.90
5176;DHT22;2607;50.934;6.934;2023-08-24T10:04:28;26.00;99.90
5176;DHT22;2607;50.934;6.934;2023-08-24T10:07:06;26.10;99.90
5176;DHT22;2607;50.934;6.934;2023-08-24T10:12:13;26.30;99.90
5176;DHT22;2607;50.934;6.934;2023-08-24T10:15:01;26.40;99.50
5176;DHT22;2607;50.934;6.934;2023-08-24T10:17:29;26.50;99.30
5176;DHT22;2607;50.934;6.934;2023-08-24T10:19:58;26.50;99.20
5176;DHT22;2607;50.934;6.934;2023-08-24T10:22:27;26.60;99.20
5176;DHT22;2607;50.934;6.934;2023-08-24T10:24:54;26.70;98.70
5176;DHT22;2607;50.934;6.934;2023-08-24T10:27:22;26.80;98.60
5176;DHT22;2607;50.934;6.934;2023-08-24T10:29:48;26.80;98.50
5176;DHT22;2607;50.934;6.934;2023-08-24T10:32:14;26.90;98.30
5176;DHT22;2607;50.934;6.934;2023-08-24T10:34:40;27.00;97.30
5176;DHT22;2607;50.934;6.934;2023-08-24T10:37:10;27.00;96.10
5176;DHT22;2607;50.934;6.934;2023-08-24T10:39:37;27.10;95.90
5176;DHT22;2607;50.934;6.934;2023-08-24T10:42:10;27.10;96.10
5176;DHT22;2607;50.934;6.934;2023-08-24T10:44:37;27.10;95.50
5176;DHT22;2607;50.934;6.934;2023-08-24T10:49:33;27.20;95.80
5176;DHT22;2607;50.934;6.934;2023-08-24T10:52:16;27.20;95.40
5176;DHT22;2607;50.934;6.934;2023-08-24T10:54:43;27.30;95.00
5176;DHT22;2607;50.934;6.934;2023-08-24T10:57:17;27.30;94.90
5176;DHT22;2607;50.934;6.934;2023-08-24T10:59:45;27.40;94.70
5176;DHT22;2607;50.934;6.934;2023-08-24T11:02:19;27.40;94.80
5176;DHT22;2607;50.934;6.934;2023-08-24T11:05:03;27.50;94.20
5176;DHT22;2607;50.934;6.934;2023-08-24T11:07:29;27.50;94.20
5176;DHT22;2607;50.934;6.934;2023-08-24T11:09:55;27.50;94.00
5176;DHT22;2607;50.934;6.934;2023-08-24T11:12:20;27.60;93.90
5176;DHT22;2607;50.934;6.934;2023-08-24T11:14:52;27.60;93.80
5176;DHT22;2607;50.934;6.934;2023-08-24T11:17:24;27.60;93.80
5176;DHT22;2607;50.934;6.934;2023-08-24T11:19:54;27.70;93.80
5176;DHT22;2607;50.934;6.934;2023-08-24T11:22:20;27.70;93.20
5176;DHT22;2607;50.934;6.934;2023-08-24T11:24:47;27.60;93.10
5176;DHT22;2607;50.934;6.934;2023-08-24T11:27:12;27.60;93.20
5176;DHT22;2607;50.934;6.934;2023-08-24T11:29:38;27.60;93.40
5176;DHT22;2607;50.934;6.934;2023-08-24T11:32:04;27.60;93.20
5176;DHT22;2607;50.934;6.934;2023-08-24T11:34:30;27.50;92.90
5176;DHT22;2607;50.934;6.934;2023-08-24T11:36:56;27.40;92.90
5176;DHT22;2607;50.934;6.934;2023-08-24T11:39:22;27.40;93.20
5176;DHT22;2607;50.934;6.934;2023-08-24T11:44:24;27.30;93.50
5176;DHT22;2607;50.934;6.934;2023-08-24T11:46:49;27.30;93.40
5176;DHT22;2607;50.934;6.934;2023-08-24T11:49:15;27.30;93.30
5176;DHT22;2607;50.934;6.934;2023-08-24T11:51:40;27.20;93.50
5176;DHT22;2607;50.934;6.934;2023-08-24T11:54:06;27.20;93.80
5176;DHT22;2607;50.934;6.934;2023-08-24T11:56:40;27.10;94.00
5176;DHT22;2607;50.934;6.934;2023-08-24T11:59:06;27.10;94.40
5176;DHT22;2607;50.934;6.934;2023-08-24T12:01:36;27.10;94.60
5176;DHT22;2607;50.934;6.934;2023-08-24T12:04:02;27.10;94.60
5176;DHT22;2607;50.934;6.934;2023-08-24T12:06:28;27.20;94.70
5176;DHT22;2607;50.934;6.934;2023-08-24T12:08:53;27.20;94.70
5176;DHT22;2607;50.934;6.934;2023-08-24T12:11:21;27.20;94.70
5176;DHT22;2607;50.934;6.934;2023-08-24T12:13:51;27.20;94.60
5176;DHT22;2607;50.934;6.934;2023-08-24T12:16:21;27.20;94.60
5176;DHT22;2607;50.934;6.934;2023-08-24T12:18:55;27.20;94.70
5176;DHT22;2607;50.934;6.934;2023-08-24T12:21:21;27.20;94.90
5176;DHT22;2607;50.934;6.934;2023-08-24T12:24:07;27.20;95.10
5176;DHT22;2607;50.934;6.934;2023-08-24T12:26:34;27.20;95.40
5176;DHT22;2607;50.934;6.934;2023-08-24T12:29:02;27.10;95.60
5176;DHT22;2607;50.934;6.934;2023-08-24T12:31:28;27.10;96.00
5176;DHT22;2607;50.934;6.934;2023-08-24T12:34:02;27.00;96.40
5176;DHT22;2607;50.934;6.934;2023-08-24T12:36:29;26.90;96.80
5176;DHT22;2607;50.934;6.934;2023-08-24T12:38:54;26.80;97.40
5176;DHT22;2607;50.934;6.934;2023-08-24T12:41:20;26.70;98.20
5176;DHT22;2607;50.934;6.934;2023-08-24T12:43:46;26.60;99.00
5176;DHT22;2607;50.934;6.934;2023-08-24T12:46:11;26.50;99.90
5176;DHT22;2607;50.934;6.934;2023-08-24T12:48:37;26.40;99.90
5176;DHT22;2607;50.934;6.934;2023-08-24T12:51:02;26.20;99.90
5176;DHT22;2607;50.934;6.934;2023-08-24T12:53:28;26.10;99.90
5176;DHT22;2607;50.934;6.934;2023-08-24T12:55:53;26.00;99.90
5176;DHT22;2607;50.934;6.934;2023-08-24T12:58:19;25.90;99.90
5176;DHT22;2607;50.934;6.934;2023-08-24T13:00:45;25.90;99.90
5176;DHT22;2607;50.934;6.934;2023-08-24T13:03:11;25.80;99.90
5176;DHT22;2607;50.934;6.934;2023-08-24T13:05:37;25.80;99.90
5176;DHT22;2607;50.934;6.934;2023-08-24T13:08:02;25.70;99.90
5176;DHT22;2607;50.934;6.934;2023-08-24T13:10:28;25.70;99.90
5176;DHT22;2607;50.934;6.934;2023-08-24T13:12:54;25.60;99.90
5176;DHT22;2607;50.934;6.934;2023-08-24T13:15:19;25.50;99.90
5176;DHT22;2607;50.934;6.934;2023-08-24T13:17:46;25.50;99.90
5176;DHT22;2607;50.934;6.934;2023-08-24T13:20:11;25.50;99.90
5176;DHT22;2607;50.934;6.934;2023-08-24T13:22:37;25.50;99.90
5176;DHT22;2607;50.934;6.934;2023-08-24T13:25:03;25.40;99.90
5176;DHT22;2607;50.934;6.934;2023-08-24T13:27:28;25.40;99.90
5176;DHT22;2607;50.934;6.934;2023-08-24T13:29:55;25.40;99.90
5176;DHT22;2607;50.934;6.934;2023-08-24T13:32:22;25.30;99.90
5176;DHT22;2607;50.934;6.934;2023-08-24T13:34:47;25.30;99.90
5176;DHT22;2607;50.934;6.934;2023-08-24T13:37:13;25.30;99.90
5176;DHT22;2607;50.934;6.934;2023-08-24T13:39:38;25.30;99.90
5176;DHT22;2607;50.934;6.934;2023-08-24T13:42:04;25.30;99.90
5176;DHT22;2607;50.934;6.934;2023-08-24T13:44:30;25.30;99.90
5176;DHT22;2607;50.934;6.934;2023-08-24T13:46:55;25.30;99.90
5176;DHT22;2607;50.934;6.934;2023-08-24T13:49:21;25.20;99.90
5176;DHT22;2607;50.934;6.934;2023-08-24T13:51:46;25.20;99.90
5176;DHT22;2607;50.934;6.934;2023-08-24T13:54:17;25.10;99.90
5176;DHT22;2607;50.934;6.934;2023-08-24T13:56:44;25.10;99.90
5176;DHT22;2607;50.934;6.934;2023-08-24T13:59:09;25.10;99.90
5176;DHT22;2607;50.934;6.934;2023-08-24T14:01:35;25.10;99.90
5176;DHT22;2607;50.934;6.934;2023-08-24T14:04:02;25.00;99.90
5176;DHT22;2607;50.934;6.934;2023-08-24T14:06:29;25.00;99.90
5176;DHT22;2607;50.934;6.934;2023-08-24T14:08:55;25.00;99.90
5176;DHT22;2607;50.934;6.934;2023-08-24T14:11:21;25.00;99.90
5176;DHT22;2607;50.934;6.934;2023-08-24T14:13:47;25.00;99.90
5176;DHT22;2607;50.934;6.934;2023-08-24T14:16:12;25.00;99.90
5176;DHT22;2607;50.934;6.934;2023-08-24T14:18:38;24.90;99.90
5176;DHT22;2607;50.934;6.934;2023-08-24T14:21:03;24.80;99.90
5176;DHT22;2607;50.934;6.934;2023-08-24T14:23:29;24.80;99.90
5176;DHT22;2607;50.934;6.934;2023-08-24T14:25:54;24.80;99.90
5176;DHT22;2607;50.934;6.934;2023-08-24T14:28:21;24.70;99.90
5176;DHT22;2607;50.934;6.934;2023-08-24T14:30:49;24.70;99.90
5176;DHT22;2607;50.934;6.934;2023-08-24T14:33:16;24.60;99.90
5176;DHT22;2607;50.934;6.934;2023-08-24T14:35:50;24.60;99.90
5176;DHT22;2607;50.934;6.934;2023-08-24T14:38:15;24.60;99.90
5176;DHT22;2607;50.934;6.934;2023-08-24T14:40:41;24.60;99.90
5176;DHT22;2607;50.934;6.934;2023-08-24T14:43:06;24.60;99.90
5176;DHT22;2607;50.934;6.934;2023-08-24T14:45:32;24.50;99.90
5176;DHT22;2607;50.934;6.934;2023-08-24T14:47:58;24.50;99.90
5176;DHT22;2607;50.934;6.934;2023-08-24T14:50:23;24.40;99.90
5176;DHT22;2607;50.934;6.934;2023-08-24T14:52:49;24.30;99.90
5176;DHT22;2607;50.934;6.934;2023-08-24T14:55:14;24.20;99.90
5176;DHT22;2607;50.934;6.934;2023-08-24T14:57:40;24.10;99.90
5176;DHT22;2607;50.934;6.934;2023-08-24T15:00:06;24.00;99.90
5176;DHT22;2607;50.934;6.934;2023-08-24T15:02:35;23.90;99.90
5176;DHT22;2607;50.934;6.934;2023-08-24T15:05:02;23.80;99.90
5176;DHT22;2607;50.934;6.934;2023-08-24T15:07:28;23.70;99.90
5176;DHT22;2607;50.934;6.934;2023-08-24T15:09:54;23.60;99.90
5176;DHT22;2607;50.934;6.934;2023-08-24T15:12:20;23.50;99.90
5176;DHT22;2607;50.934;6.934;2023-08-24T15:15:00;23.40;99.90
5176;DHT22;2607;50.934;6.934;2023-08-24T15:17:28;23.30;99.90
5176;DHT22;2607;50.934;6.934;2023-08-24T15:19:54;23.20;99.90
5176;DHT22;2607;50.934;6.934;2023-08-24T15:22:20;23.10;99.90
5176;DHT22;2607;50.934;6.934;2023-08-24T15:24:46;23.00;99.90
5176;DHT22;2607;50.934;6.934;2023-08-24T15:27:11;23.00;99.90
5176;DHT22;2607;50.934;6.934;2023-08-24T15:29:37;22.90;99.90
5176;DHT22;2607;50.934;6.934;2023-08-24T15:32:03;22.80;99.90
5176;DHT22;2607;50.934;6.934;2023-08-24T15:34:28;22.80;99.90
5176;DHT22;2607;50.934;6.934;2023-08-24T15:36:54;22.70;99.90
5176;DHT22;2607;50.934;6.934;2023-08-24T15:39:19;22.70;99.90
5176;DHT22;2607;50.934;6.934;2023-08-24T15:41:45;22.60;99.90
5176;DHT22;2607;50.934;6.934;2023-08-24T15:44:11;22.60;99.90
5176;DHT22;2607;50.934;6.934;2023-08-24T15:46:36;22.50;99.90
5176;DHT22;2607;50.934;6.934;2023-08-24T15:49:02;22.50;99.90
5176;DHT22;2607;50.934;6.934;2023-08-24T15:51:27;22.40;99.90
5176;DHT22;2607;50.934;6.934;2023-08-24T15:53:53;22.30;99.90
5176;DHT22;2607;50.934;6.934;2023-08-24T15:56:19;22.30;99.90
5176;DHT22;2607;50.934;6.934;2023-08-24T15:58:44;22.30;99.90
5176;DHT22;2607;50.934;6.934;2023-08-24T16:01:11;22.20;99.90
5176;DHT22;2607;50.934;6.934;2023-08-24T16:03:36;22.20;99.90
5176;DHT22;2607;50.934;6.934;2023-08-24T16:06:02;22.20;99.90